Latest Weather Observations for Coolangatta

IDQ60801

Issued at 6:35 pm EST Saturday 18 April 2015 (issued every 30 minutes, with the page automatically refreshed every 10 minutes)

About weather observations | Map of weather stations | Latest weather observations for QLD | Other Formats
Station Details ID: 040717 Name: COOLANGATTA Lat: -28.17 Lon: 153.51 Height: 4.0 m
Data from the previous 72 hours. | See also: Recent months at Coolangatta
Date/Time
EST
Temp
°C
App
Temp
°C
Dew
Point
Rel
Hum
%
Delta-T
°C
Wind Press
QNH
hPa
Press
MSL
hPa
Rain
since 9 am
mm
Dir
 
Spd
km/h
Gust
km/h
Spd
kts
Gust
kts
18/06:30pm 24.2 22.9 19.1 73 3.2 NNE 24 33 13 18 1019.9 1019.9 0.2
18/06:00pm 24.4 22.8 18.3 69 3.8 NNE 24 32 13 17 1019.9 1019.9 0.2
18/05:30pm 24.5 23.3 18.4 69 3.8 NNE 22 30 12 16 1019.8 1019.8 0.2
18/05:00pm 24.9 23.9 18.8 69 3.9 NNE 22 26 12 14 1019.6 1019.6 0.2
18/04:30pm 24.9 24.2 18.6 68 4.0 NNE 20 26 11 14 1019.6 1019.6 0.2
18/04:00pm 25.4 24.6 18.1 64 4.6 NNE 19 24 10 13 1019.4 1019.4 0.2
18/03:30pm 25.6 24.7 18.3 64 4.6 NNE 20 24 11 13 1019.3 1019.3 0.2
18/03:00pm 26.1 24.7 18.0 61 5.1 NNE 22 26 12 14 1019.3 1019.3 0.2
18/02:30pm 26.7 25.5 18.3 60 5.3 NNE 22 28 12 15 1019.3 1019.3 0.2
18/02:00pm 26.6 25.2 17.9 59 5.5 NNE 22 28 12 15 1019.5 1019.5 0.2
18/01:30pm 27.0 25.6 18.0 58 5.7 NNE 22 30 12 16 1019.8 1019.8 0.2
18/01:00pm 26.5 25.0 17.6 58 5.6 NNE 22 28 12 15 1020.3 1020.3 0.2
18/12:30pm 27.0 25.5 17.8 57 5.8 N 22 28 12 15 1020.6 1020.6 0.2
18/12:00pm 26.4 24.5 17.7 58 5.5 NNE 24 30 13 16 1021.1 1021.1 0.2
18/11:30am 26.7 25.1 17.5 57 5.8 N 22 30 12 16 1021.7 1021.7 0.2
18/11:00am 26.4 25.9 17.7 58 5.5 N 17 22 9 12 1022.1 1022.1 0.2
18/10:30am 26.1 25.6 17.7 60 5.3 N 17 24 9 13 1022.6 1022.6 0.2
18/10:00am 25.4 26.0 17.8 62 4.8 N 11 15 6 8 1022.9 1022.9 0.0
18/08:30am 22.6 24.4 18.8 79 2.4 WSW 7 11 4 6 1023.2 1023.2 0.0
18/08:00am 20.5 21.4 18.3 87 1.4 WSW 11 15 6 8 1023.0 1023.0 0.0
18/07:30am 20.5 22.0 18.8 90 1.1 WSW 9 15 5 8 1022.6 1022.6 0.0
18/07:00am 19.4 21.5 18.2 93 0.7 SSW 4 7 2 4 1022.3 1022.3 0.0
18/06:30am 17.9 19.5 16.9 94 0.6 S 4 7 2 4 1022.0 1022.0 0.0
18/06:00am 17.9 18.9 16.9 94 0.6 SW 7 9 4 5 1021.7 1021.7 0.0
18/05:30am 18.3 20.8 17.3 94 0.6 CALM 0 6 0 3 1021.6 1021.6 0.0
18/05:00am 18.4 19.8 17.4 94 0.6 SSW 6 7 3 4 1021.7 1021.7 0.0
18/04:30am 18.0 20.3 16.7 92 0.8 CALM 0 0 0 0 1021.5 1021.5 0.0
18/04:00am 18.3 19.6 17.1 93 0.7 SSW 6 9 3 5 1021.6 1021.6 0.0
18/03:30am 18.4 20.5 17.1 92 0.8 SSW 2 7 1 4 1021.7 1021.7 0.0
18/03:00am 18.4 19.7 17.2 93 0.7 SW 6 9 3 5 1021.6 1021.6 0.0
18/02:30am 18.4 20.5 17.1 92 0.8 SW 2 7 1 4 1021.9 1021.9 0.0
18/02:00am 18.1 19.7 16.8 92 0.8 SW 4 7 2 4 1022.4 1022.4 0.0
18/01:30am 18.3 19.4 17.0 92 0.8 SW 7 13 4 7 1022.5 1022.5 0.0
18/01:00am 18.2 19.2 16.9 92 0.8 WSW 7 11 4 6 1022.8 1022.8 0.0
18/12:30am 18.3 19.5 16.8 91 0.9 SW 6 9 3 5 1022.8 1022.8 0.0
 
Date/Time
EST
Temp
°C
App
Temp
°C
Dew
Point
Rel
Hum
%
Delta-T
°C
Wind Press
QNH
hPa
Press
MSL
hPa
Rain
since 9 am
mm
Dir
 
Spd
km/h
Gust
km/h
Spd
kts
Gust
kts
17/11:30pm 18.5 19.4 16.7 89 1.1 SW 7 11 4 6 1023.3 1023.3 0.0
17/11:00pm 18.8 19.8 16.8 88 1.2 WSW 7 9 4 5 1023.3 1023.3 0.0
17/10:30pm 19.1 20.1 16.9 87 1.3 SW 7 9 4 5 1023.4 1023.4 0.0
17/10:00pm 19.3 19.6 17.1 87 1.3 WSW 11 15 6 8 1023.5 1023.5 0.0
17/09:30pm 19.2 20.5 17.0 87 1.3 SW 6 9 3 5 1023.5 1023.5 0.0
17/09:00pm 19.7 20.6 17.5 87 1.3 WSW 9 13 5 7 1023.5 1023.5 0.0
17/08:30pm 19.7 19.8 17.5 87 1.3 WSW 13 15 7 8 1023.5 1023.5 0.0
17/08:00pm 21.0 22.0 16.4 75 2.8 N 6 11 3 6 1023.2 1023.2 0.0
17/07:30pm 23.4 22.6 16.2 64 4.4 NE 15 19 8 10 1022.9 1022.9 0.0
17/07:00pm 23.1 22.5 16.6 67 4.0 NE 15 19 8 10 1022.7 1022.7 0.0
17/06:30pm 23.2 22.5 16.3 65 4.2 NE 15 19 8 10 1022.4 1022.4 0.0
17/06:00pm 23.3 22.4 16.8 67 4.0 NE 17 22 9 12 1022.1 1022.1 0.0
17/05:30pm 23.6 22.6 16.6 65 4.3 ENE 17 22 9 12 1021.7 1021.7 0.0
17/05:00pm 23.8 23.4 17.1 66 4.1 ENE 15 20 8 11 1021.6 1021.6 0.0
17/04:30pm 24.0 23.1 16.8 64 4.4 ENE 17 20 9 11 1021.5 1021.5 0.0
17/04:00pm 25.0 23.7 16.7 60 5.1 ENE 19 22 10 12 1021.3 1021.3 0.0
17/03:30pm 25.6 24.6 17.5 61 5.1 ENE 19 24 10 13 1021.2 1021.2 0.0
17/03:00pm 25.9 24.9 17.5 59 5.2 ENE 19 24 10 13 1021.3 1021.3 0.0
17/02:30pm 25.9 24.7 17.5 59 5.3 ENE 20 26 11 14 1021.3 1021.3 0.0
17/02:00pm 26.0 25.0 17.6 60 5.3 NE 19 24 10 13 1021.5 1021.5 0.0
17/01:30pm 26.0 24.9 17.4 59 5.4 NE 19 22 10 12 1021.6 1021.6 0.0
17/01:00pm 26.5 26.0 17.8 58 5.5 NE 17 22 9 12 1021.9 1021.9 0.0
17/12:30pm 26.1 26.4 18.0 61 5.1 NE 13 20 7 11 1022.4 1022.4 0.0
17/12:00pm 26.0 26.4 18.2 62 4.9 NE 13 19 7 10 1022.9 1022.9 0.0
17/11:30am 25.4 26.0 17.8 62 4.8 NE 11 17 6 9 1023.3 1023.3 0.0
17/11:00am 25.5 26.5 17.7 62 4.9 NE 9 15 5 8 1024.0 1024.0 0.0
17/10:30am 25.7 26.5 17.4 60 5.2 NE 9 15 5 8 1024.0 1024.0 0.0
17/10:00am 25.3 26.0 17.0 60 5.1 NNE 9 13 5 7 1024.3 1024.3 0.0
17/09:30am 25.3 26.3 17.7 62 4.8 NNE 9 13 5 7 1024.6 1024.6 0.0
17/09:00am 24.7 25.9 16.9 62 4.8 NE 6 13 3 7 1024.5 1024.5 0.0
17/08:30am 23.3 25.1 18.2 73 3.2 SSE 6 7 3 4 1024.6 1024.6 0.0
17/08:00am 21.5 23.3 18.3 82 2.0 SSE 6 9 3 5 1024.7 1024.7 0.0
17/07:30am 19.9 21.6 18.0 89 1.2 SSE 6 7 3 4 1024.6 1024.6 0.0
17/07:00am 18.1 19.3 16.9 93 0.7 SSW 6 7 3 4 1024.0 1024.0 0.0
17/06:30am 17.1 18.1 16.3 95 0.5 SSW 6 9 3 5 1023.7 1023.7 0.0
17/06:00am 17.0 18.0 16.4 96 0.4 SSW 6 7 3 4 1023.5 1023.5 0.0
17/05:30am 16.9 17.8 16.1 95 0.5 SSW 6 6 3 3 1023.2 1023.2 0.0
17/05:00am 16.7 18.7 15.9 95 0.5 CALM 0 0 0 0 1023.0 1023.0 0.0
17/04:30am 16.8 18.7 15.8 94 0.6 CALM 0 0 0 0 1022.8 1022.8 0.0
17/04:00am 17.5 18.6 16.7 95 0.5 S 6 6 3 3 1022.7 1022.7 0.0
17/03:30am 17.6 19.8 16.6 94 0.6 CALM 0 0 0 0 1022.9 1022.9 0.0
17/03:00am 17.4 19.2 16.4 94 0.6 SW 2 6 1 3 1022.8 1022.8 0.0
17/02:30am 17.6 19.1 16.6 94 0.6 SSW 4 7 2 4 1022.9 1022.9 0.0
17/02:00am 17.6 19.0 16.5 93 0.7 SSW 4 7 2 4 1023.1 1023.1 0.0
17/01:30am 17.8 20.1 16.7 93 0.7 CALM 0 0 0 0 1023.4 1023.4 0.0
17/01:00am 18.0 19.1 16.7 92 0.8 SW 6 7 3 4 1023.6 1023.6 0.0
17/12:30am 18.0 19.5 16.7 92 0.8 SSW 4 7 2 4 1024.2 1024.2 0.0
17/12:00am 18.1 19.3 16.8 92 0.8 SW 6 9 3 5 1024.2 1024.2 0.0
 
Date/Time
EST
Temp
°C
App
Temp
°C
Dew
Point
Rel
Hum
%
Delta-T
°C
Wind Press
QNH
hPa
Press
MSL
hPa
Rain
since 9 am
mm
Dir
 
Spd
km/h
Gust
km/h
Spd
kts
Gust
kts
16/11:30pm 18.3 20.2 16.6 90 1.0 SSW 2 7 1 4 1024.4 1024.4 0.0
16/11:00pm 18.1 19.2 16.6 91 0.9 SSW 6 7 3 4 1024.5 1024.5 0.0
16/10:30pm 17.9 20.1 16.4 91 0.9 CALM 0 6 0 3 1024.5 1024.5 0.0
16/10:00pm 17.9 19.6 16.2 90 1.0 SW 2 7 1 4 1024.5 1024.5 0.0
16/09:30pm 17.8 18.7 16.1 90 1.0 SW 6 7 3 4 1024.6 1024.6 0.0
16/09:00pm 18.3 19.4 16.5 89 1.1 WSW 6 9 3 5 1024.6 1024.6 0.0
16/08:30pm 18.8 19.1 17.1 90 1.0 WSW 11 13 6 7 1024.7 1024.7 0.0
16/08:00pm 18.6 19.5 16.6 88 1.2 WSW 7 9 4 5 1024.6 1024.6 0.0
16/07:30pm 19.2 19.9 17.0 87 1.3 WSW 9 13 5 7 1024.2 1024.2 0.0
16/07:00pm 19.5 20.4 16.7 84 1.7 WSW 7 7 4 4 1024.0 1024.0 0.0
16/06:30pm 20.2 21.2 16.8 81 2.1 WSW 7 7 4 4 1023.9 1023.9 0.0
16/06:00pm 21.5 22.2 15.6 69 3.5 NE 6 11 3 6 1023.6 1023.6 0.0
16/05:30pm 23.0 22.9 16.1 65 4.2 NE 11 15 6 8 1023.2 1023.2 0.0
16/05:00pm 23.7 23.6 16.0 62 4.7 ENE 11 13 6 7 1023.0 1023.0 0.0
16/04:30pm 24.3 23.8 15.8 59 5.1 NE 13 17 7 9 1022.9 1022.9 0.0
16/04:00pm 24.5 24.5 16.2 60 5.0 NE 11 17 6 9 1022.9 1022.9 0.0
16/03:30pm 24.9 24.0 15.8 57 5.5 ENE 15 20 8 11 1022.8 1022.8 0.0
16/03:00pm 25.3 24.7 16.7 59 5.3 ENE 15 20 8 11 1022.9 1022.9 0.0
16/02:30pm 25.5 24.6 16.9 59 5.3 ENE 17 20 9 11 1023.0 1023.0 0.0
16/02:00pm 25.2 24.2 16.6 59 5.3 NE 17 22 9 12 1023.1 1023.1 0.0
16/01:30pm 25.3 24.7 16.7 59 5.3 NE 15 22 8 12 1023.3 1023.3 0.0
16/01:00pm 26.0 25.9 17.9 61 5.1 ENE 15 20 8 11 1023.6 1023.6 0.0
16/12:30pm 25.3 24.7 15.6 55 5.9 NE 13 19 7 10 1024.0 1024.0 0.0
16/12:00pm 25.1 24.7 16.3 58 5.4 NE 13 20 7 11 1024.6 1024.6 0.0
16/11:30am 25.1 24.7 16.3 58 5.4 NE 13 20 7 11 1024.9 1024.9 0.0
16/11:00am 24.7 24.7 16.2 59 5.2 NE 11 17 6 9 1025.7 1025.7 0.0
16/10:30am 25.1 24.1 15.7 56 5.7 NE 15 19 8 10 1025.8 1025.8 0.0
16/10:00am 25.0 24.1 15.9 57 5.5 NE 15 19 8 10 1026.1 1026.1 0.0
16/09:30am 24.3 25.3 16.8 63 4.6 SSE 7 13 4 7 1026.2 1026.2 0.0
16/09:00am 24.1 25.3 17.4 66 4.1 SSE 7 11 4 6 1026.3 1026.3 0.0
16/08:30am 22.9 24.3 17.8 73 3.2 SSE 7 9 4 5 1026.3 1026.3 0.0
16/08:00am 21.0 22.6 18.2 84 1.7 SW 7 11 4 6 1026.5 1026.5 0.0
16/07:30am 19.0 20.3 17.0 88 1.2 SW 6 9 3 5 1025.9 1025.9 0.0
16/07:00am 18.1 19.4 17.1 94 0.6 S 6 6 3 3 1025.7 1025.7 0.0
16/06:30am 16.3 16.9 15.7 96 0.4 SSW 7 9 4 5 1025.4 1025.4 0.0
16/06:00am 15.9 17.6 15.1 95 0.5 CALM 0 0 0 0 1024.9 1024.9 0.0
16/05:30am 16.1 17.5 15.3 95 0.5 SSW 2 6 1 3 1024.9 1024.9 0.0
16/05:00am 16.0 16.6 15.2 95 0.5 SSW 6 7 3 4 1024.8 1024.8 0.0
16/04:30am 16.4 17.9 15.8 96 0.4 SSW 2 6 1 3 1024.6 1024.6 0.0
16/04:00am 15.9 16.4 15.1 95 0.5 SSW 6 7 3 4 1024.5 1024.5 0.0
16/03:30am 16.1 17.1 15.3 95 0.5 SSW 4 7 2 4 1024.5 1024.5 0.0
16/03:00am 16.3 17.0 15.5 95 0.5 SW 6 7 3 4 1024.4 1024.4 0.0
16/02:30am 16.1 16.4 15.1 94 0.6 SW 7 9 4 5 1024.6 1024.6 0.0
16/02:00am 16.5 17.2 15.5 94 0.6 SSW 6 7 3 4 1025.0 1025.0 0.0
16/01:30am 16.5 17.2 15.5 94 0.6 SW 6 9 3 5 1025.2 1025.2 0.0
16/01:00am 16.4 16.9 15.1 92 0.7 SSW 6 7 3 4 1025.5 1025.5 0.0
16/12:30am 17.1 17.8 16.0 93 0.6 S 7 7 4 4 1025.7 1025.7 0.0
16/12:00am 17.0 17.7 15.5 91 0.9 S 6 7 3 4 1025.8 1025.8 0.0
 
Date/Time
EST
Temp
°C
App
Temp
°C
Dew
Point
Rel
Hum
%
Delta-T
°C
Wind Press
QNH
hPa
Press
MSL
hPa
Rain
since 9 am
mm
Dir
 
Spd
km/h
Gust
km/h
Spd
kts
Gust
kts
15/11:30pm 17.2 17.9 15.7 91 0.9 SW 6 6 3 3 1025.8 1025.8 0.0
15/11:00pm 17.4 19.0 15.9 91 0.9 WSW 2 7 1 4 1026.0 1026.0 0.0
15/10:30pm 17.5 18.3 15.8 90 1.0 SW 6 9 3 5 1026.0 1026.0 0.0
15/10:00pm 17.6 18.3 16.1 91 0.9 SW 7 11 4 6 1025.9 1025.9 0.0
15/09:30pm 17.6 18.4 15.8 89 1.1 SW 6 7 3 4 1025.7 1025.7 0.0
15/09:00pm 17.9 18.7 15.9 88 1.2 SSW 6 9 3 5 1025.7 1025.7 0.0
15/08:30pm 18.6 19.7 16.6 88 1.2 WSW 6 7 3 4 1025.8 1025.8 0.0
15/08:00pm 18.9 19.3 16.3 85 1.5 SW 9 13 5 7 1025.5 1025.5 0.0
15/07:30pm 19.3 19.5 16.7 85 1.6 SW 11 13 6 7 1025.4 1025.4 0.0
15/07:00pm 19.4 19.9 16.6 84 1.7 WSW 9 11 5 6 1025.1 1025.1 0.0

Other Formats:

Comma delimited format used in spreadsheet applications
http://www.bom.gov.au/fwo/IDQ60801/IDQ60801.94592.axf

JavaScript Object Notation format (JSON) in row-major order
http://www.bom.gov.au/fwo/IDQ60801/IDQ60801.94592.json